createdAt,value
2019-03-17T00:00:50.872Z,8.30
2019-03-17T00:03:18.232Z,8.30
2019-03-17T00:05:45.677Z,8.30
2019-03-17T00:08:13.173Z,8.20
2019-03-17T00:10:40.719Z,8.20
2019-03-17T00:13:08.198Z,8.20
2019-03-17T00:15:35.813Z,8.30
2019-03-17T00:18:03.514Z,8.20
2019-03-17T00:20:30.952Z,8.20
2019-03-17T00:22:58.416Z,8.20
2019-03-17T00:25:26.798Z,8.20
2019-03-17T00:27:54.481Z,8.20
2019-03-17T00:30:22.186Z,8.20
2019-03-17T00:32:49.773Z,8.20
2019-03-17T00:35:17.406Z,8.20
2019-03-17T00:37:44.883Z,8.20
2019-03-17T00:40:12.273Z,8.20
2019-03-17T00:42:40.773Z,8.20
2019-03-17T00:45:11.250Z,8.20
2019-03-17T00:47:37.821Z,8.20
2019-03-17T00:50:05.706Z,8.30
2019-03-17T00:52:33.009Z,8.20
2019-03-17T00:55:00.608Z,8.10
2019-03-17T00:57:28.294Z,8.10
2019-03-17T00:59:55.696Z,8.10
2019-03-17T01:02:23.186Z,8.20
2019-03-17T01:04:56.200Z,8.20
2019-03-17T01:07:20.314Z,8.20
2019-03-17T01:09:48.460Z,8.20
2019-03-17T01:12:15.941Z,8.20
2019-03-17T01:14:43.333Z,8.30
2019-03-17T01:17:10.960Z,8.20
2019-03-17T01:19:38.619Z,8.30
2019-03-17T01:22:19.772Z,8.30
2019-03-17T01:24:47.178Z,8.30
2019-03-17T01:27:14.652Z,8.40
2019-03-17T01:29:42.369Z,8.40
2019-03-17T01:32:09.817Z,8.40
2019-03-17T01:34:37.142Z,8.50
2019-03-17T01:37:04.731Z,8.50
2019-03-17T01:39:32.132Z,8.50
2019-03-17T01:41:59.902Z,8.60
2019-03-17T01:44:27.320Z,8.60
2019-03-17T01:46:54.659Z,8.70
2019-03-17T01:49:22.382Z,8.70
2019-03-17T01:51:49.788Z,8.80
2019-03-17T01:54:17.142Z,8.80
2019-03-17T01:56:44.632Z,8.90
2019-03-17T01:59:12.165Z,8.90
2019-03-17T02:01:39.599Z,8.90
2019-03-17T02:04:07.003Z,9.10
2019-03-17T02:06:34.636Z,9.00
2019-03-17T02:09:02.745Z,9.00
2019-03-17T02:11:31.215Z,9.10
2019-03-17T02:13:58.827Z,9.00
2019-03-17T02:16:26.336Z,9.00
2019-03-17T02:18:53.814Z,9.00
2019-03-17T02:21:21.177Z,9.00
2019-03-17T02:23:48.531Z,9.10
2019-03-17T02:26:16.038Z,9.10
2019-03-17T02:28:43.598Z,9.20
2019-03-17T02:31:11.187Z,9.20
2019-03-17T02:33:38.527Z,9.20
2019-03-17T02:36:06.357Z,9.30
2019-03-17T02:38:33.820Z,9.30
2019-03-17T02:41:01.272Z,9.40
2019-03-17T02:43:28.712Z,9.40
2019-03-17T02:45:56.189Z,9.40
2019-03-17T02:48:23.615Z,9.40
2019-03-17T02:50:51.092Z,9.50
2019-03-17T02:53:18.482Z,9.50
2019-03-17T02:55:46.052Z,9.50
2019-03-17T02:58:13.438Z,9.50
2019-03-17T03:00:41.481Z,9.50
2019-03-17T03:03:09.027Z,9.50
2019-03-17T03:05:36.672Z,9.60
2019-03-17T03:08:04.527Z,9.60
2019-03-17T03:10:32.486Z,9.60
2019-03-17T03:13:00.324Z,9.60
2019-03-17T03:15:27.777Z,9.60
2019-03-17T03:17:55.278Z,9.70
2019-03-17T03:20:22.769Z,9.70
2019-03-17T03:22:50.306Z,9.70
2019-03-17T03:25:17.703Z,9.70
2019-03-17T03:27:45.054Z,9.80
2019-03-17T03:30:12.693Z,9.80
2019-03-17T03:32:40.814Z,9.80
2019-03-17T03:35:08.476Z,9.80
2019-03-17T03:37:36.040Z,9.80
2019-03-17T03:40:04.154Z,9.90
2019-03-17T03:42:31.925Z,9.90
2019-03-17T03:44:59.405Z,9.90
2019-03-17T03:47:26.875Z,9.90
2019-03-17T03:49:57.232Z,9.90
2019-03-17T03:52:23.904Z,10.00
2019-03-17T03:54:51.225Z,10.00
2019-03-17T03:57:18.680Z,10.00
2019-03-17T03:59:46.264Z,10.00
2019-03-17T04:02:13.695Z,10.00
2019-03-17T04:04:43.096Z,10.00
2019-03-17T04:07:10.559Z,10.00
2019-03-17T04:09:38.147Z,10.00
2019-03-17T04:12:05.675Z,10.10
2019-03-17T04:14:33.089Z,10.00
2019-03-17T04:17:00.655Z,10.00
2019-03-17T04:19:28.250Z,10.00
2019-03-17T04:21:55.703Z,9.90
2019-03-17T04:24:23.181Z,9.90
2019-03-17T04:26:50.654Z,9.80
2019-03-17T04:29:18.187Z,9.80
2019-03-17T04:31:45.545Z,9.70
2019-03-17T04:34:12.923Z,9.60
2019-03-17T04:36:40.867Z,9.50
2019-03-17T04:39:08.363Z,9.50
2019-03-17T04:41:35.742Z,9.40
2019-03-17T04:44:03.945Z,9.30
2019-03-17T04:46:31.506Z,9.20
2019-03-17T04:48:59.126Z,9.20
2019-03-17T04:51:26.496Z,9.10
2019-03-17T04:53:53.868Z,9.10
2019-03-17T04:56:21.214Z,9.10
2019-03-17T04:58:48.759Z,9.00
2019-03-17T05:01:16.241Z,8.90
2019-03-17T05:03:43.783Z,8.80
2019-03-17T05:06:12.238Z,8.70
2019-03-17T05:08:39.601Z,8.60
2019-03-17T05:11:07.069Z,8.60
2019-03-17T05:13:34.619Z,8.50
2019-03-17T05:16:02.099Z,8.40
2019-03-17T05:18:29.574Z,8.40
2019-03-17T05:20:56.948Z,8.30
2019-03-17T05:23:24.298Z,8.30
2019-03-17T05:25:51.867Z,8.20
2019-03-17T05:28:19.432Z,8.20
2019-03-17T05:30:46.784Z,8.20
2019-03-17T05:33:14.180Z,8.10
2019-03-17T05:35:41.595Z,8.10
2019-03-17T05:38:09.082Z,8.10
2019-03-17T05:40:37.743Z,8.00
2019-03-17T05:43:05.191Z,8.00
2019-03-17T05:45:32.670Z,8.10
2019-03-17T05:48:00.243Z,8.10
2019-03-17T05:50:27.638Z,8.10
2019-03-17T05:52:55.140Z,8.20
2019-03-17T05:55:24.507Z,8.20
2019-03-17T05:57:52.491Z,8.30
2019-03-17T06:00:19.915Z,8.40
2019-03-17T06:02:47.232Z,8.50
2019-03-17T06:05:14.679Z,8.60
2019-03-17T06:07:42.210Z,8.80
2019-03-17T06:10:09.856Z,8.90
2019-03-17T06:12:37.250Z,9.10
2019-03-17T06:15:05.992Z,9.30
2019-03-17T06:17:33.574Z,9.40
2019-03-17T06:20:01.067Z,9.60
2019-03-17T06:22:30.325Z,9.80
2019-03-17T06:24:57.664Z,10.10
2019-03-17T06:27:25.101Z,10.50
2019-03-17T06:29:53.315Z,10.80
2019-03-17T06:32:20.644Z,11.40
2019-03-17T06:34:48.098Z,11.90
2019-03-17T06:37:15.454Z,12.50
2019-03-17T06:39:43.077Z,13.10
2019-03-17T06:42:10.379Z,13.70
2019-03-17T06:44:37.933Z,14.20
2019-03-17T06:47:05.991Z,14.60
2019-03-17T06:49:33.627Z,14.90
2019-03-17T06:52:01.047Z,15.30
2019-03-17T06:54:28.567Z,15.70
2019-03-17T06:56:56.129Z,16.00
2019-03-17T06:59:23.589Z,16.40
2019-03-17T07:01:51.042Z,16.90
2019-03-17T07:04:18.430Z,17.20
2019-03-17T07:06:45.857Z,17.60
2019-03-17T07:09:13.403Z,18.10
2019-03-17T07:11:40.760Z,18.50
2019-03-17T07:14:08.220Z,19.00
2019-03-17T07:16:35.647Z,19.50
2019-03-17T07:19:03.330Z,19.80
2019-03-17T07:21:30.761Z,19.90
2019-03-17T07:23:58.310Z,19.80
2019-03-17T07:26:25.913Z,19.60
2019-03-17T07:28:54.483Z,19.30
2019-03-17T07:31:21.846Z,19.30
2019-03-17T07:33:49.855Z,19.40
2019-03-17T07:36:17.210Z,19.60
2019-03-17T07:38:44.666Z,19.90
2019-03-17T07:41:12.057Z,20.00
2019-03-17T07:43:39.479Z,20.00
2019-03-17T07:46:06.838Z,20.30
2019-03-17T07:48:34.401Z,20.70
2019-03-17T07:51:01.830Z,21.10
2019-03-17T07:53:29.267Z,21.60
2019-03-17T07:56:04.110Z,21.90
2019-03-17T07:58:31.495Z,22.70
2019-03-17T08:01:01.127Z,23.60
2019-03-17T08:03:28.085Z,24.40
2019-03-17T08:05:57.474Z,24.80
2019-03-17T08:08:28.702Z,25.10
2019-03-17T08:10:59.550Z,24.80
2019-03-17T08:13:27.521Z,24.40
2019-03-17T08:15:55.014Z,24.50
2019-03-17T08:18:22.608Z,25.10
2019-03-17T08:20:50.270Z,25.70
2019-03-17T08:23:17.923Z,25.80
2019-03-17T08:25:45.384Z,26.20
2019-03-17T08:28:12.886Z,26.70
2019-03-17T08:30:52.642Z,27.20
2019-03-17T08:33:14.034Z,28.10
2019-03-17T08:35:41.914Z,29.20
2019-03-17T08:38:21.036Z,29.80
2019-03-17T08:40:38.706Z,30.70
2019-03-17T08:43:06.094Z,31.10
2019-03-17T08:45:33.464Z,31.50
2019-03-17T08:48:01.116Z,32.10
2019-03-17T08:50:28.618Z,32.80
2019-03-17T08:52:55.991Z,33.60
2019-03-17T08:55:23.641Z,34.00
2019-03-17T08:57:51.179Z,34.60
2019-03-17T09:00:20.267Z,35.30
2019-03-17T09:02:49.517Z,35.90
2019-03-17T09:05:18.767Z,35.80
2019-03-17T09:07:48.330Z,35.90
2019-03-17T09:10:16.047Z,35.70
2019-03-17T09:12:43.402Z,35.60
2019-03-17T09:15:11.160Z,35.90
2019-03-17T09:17:47.550Z,36.80
2019-03-17T09:20:17.480Z,37.90
2019-03-17T09:22:45.156Z,38.10
2019-03-17T09:25:13.101Z,37.80
2019-03-17T09:27:40.674Z,37.70
2019-03-17T09:30:10.259Z,37.90
2019-03-17T09:32:38.026Z,37.50
2019-03-17T09:35:06.106Z,37.90
2019-03-17T09:37:33.572Z,38.40
2019-03-17T09:40:01.224Z,38.60
2019-03-17T09:42:28.742Z,38.10
2019-03-17T09:44:56.267Z,38.20
2019-03-17T09:47:26.027Z,38.60
2019-03-17T09:49:54.471Z,39.10
2019-03-17T09:52:22.175Z,39.90
2019-03-17T09:54:49.731Z,40.40
2019-03-17T09:57:17.101Z,40.70
2019-03-17T09:59:44.509Z,40.90
2019-03-17T10:02:11.912Z,40.80
2019-03-17T10:04:39.436Z,40.70
2019-03-17T10:07:06.928Z,40.20
2019-03-17T10:09:34.389Z,40.10
2019-03-17T10:12:01.919Z,40.70
2019-03-17T10:14:30.495Z,41.40
2019-03-17T10:16:57.810Z,42.10
2019-03-17T10:19:25.203Z,42.80
2019-03-17T10:21:52.653Z,42.70
2019-03-17T10:24:20.050Z,42.90
2019-03-17T10:26:47.955Z,43.50
2019-03-17T10:29:15.618Z,43.70
2019-03-17T10:31:43.019Z,44.20
2019-03-17T10:34:10.405Z,44.90
2019-03-17T10:36:37.730Z,45.60
2019-03-17T10:39:12.421Z,46.60
2019-03-17T10:41:35.674Z,47.40
2019-03-17T10:44:03.311Z,48.20
2019-03-17T10:46:30.769Z,48.50
2019-03-17T10:48:58.496Z,48.80
2019-03-17T10:51:26.159Z,49.40
2019-03-17T10:53:53.523Z,49.50
2019-03-17T10:56:20.891Z,49.70
2019-03-17T10:58:48.345Z,50.00
2019-03-17T11:01:15.714Z,50.40
2019-03-17T11:03:43.128Z,50.90
2019-03-17T11:06:10.797Z,51.50
2019-03-17T11:08:38.898Z,52.20
2019-03-17T11:11:06.911Z,52.40
2019-03-17T11:13:34.300Z,52.10
2019-03-17T11:16:01.873Z,52.50
2019-03-17T11:18:29.334Z,52.10
2019-03-17T11:20:57.142Z,52.00
2019-03-17T11:23:28.111Z,51.60
2019-03-17T11:25:55.923Z,52.00
2019-03-17T11:28:23.599Z,52.50
2019-03-17T11:30:58.668Z,51.80
2019-03-17T11:33:26.702Z,50.30
2019-03-17T11:35:55.565Z,50.30
2019-03-17T11:38:23.640Z,49.90
2019-03-17T11:40:51.924Z,49.40
2019-03-17T11:43:19.648Z,49.20
2019-03-17T11:45:48.471Z,49.50
2019-03-17T11:48:18.000Z,49.80
2019-03-17T11:50:46.627Z,49.80
2019-03-17T11:53:14.181Z,49.50
2019-03-17T11:55:43.902Z,48.80
2019-03-17T11:58:12.149Z,49.40
2019-03-17T12:00:40.223Z,50.80
2019-03-17T12:03:08.765Z,51.90
2019-03-17T12:05:36.556Z,52.70
2019-03-17T12:08:04.133Z,51.70
2019-03-17T12:10:31.745Z,50.90
2019-03-17T12:12:59.260Z,51.00
2019-03-17T12:15:27.190Z,50.60
2019-03-17T12:17:54.647Z,49.90
2019-03-17T12:20:22.478Z,49.10
2019-03-17T12:22:50.210Z,49.30
2019-03-17T12:25:18.252Z,49.70
2019-03-17T12:27:45.976Z,50.50
2019-03-17T12:30:19.757Z,50.20
2019-03-17T12:32:47.872Z,49.30
2019-03-17T12:35:15.890Z,49.00
2019-03-17T12:37:43.725Z,49.80
2019-03-17T12:40:11.467Z,50.20
2019-03-17T12:42:39.131Z,51.10
2019-03-17T12:45:06.920Z,51.00
2019-03-17T12:47:37.207Z,50.40
2019-03-17T12:50:04.392Z,49.30
2019-03-17T12:52:32.223Z,48.50
2019-03-17T12:54:59.809Z,47.50
2019-03-17T12:57:27.478Z,46.50
2019-03-17T12:59:55.192Z,46.50
2019-03-17T13:02:22.827Z,47.00
2019-03-17T13:04:50.397Z,46.90
2019-03-17T13:07:19.985Z,46.60
2019-03-17T13:09:48.057Z,47.00
2019-03-17T13:12:16.479Z,47.50
2019-03-17T13:14:44.060Z,48.30
2019-03-17T13:17:12.690Z,48.80
2019-03-17T13:19:40.503Z,48.50
2019-03-17T13:22:08.210Z,47.70
2019-03-17T13:24:35.658Z,46.70
2019-03-17T13:27:03.393Z,46.00
2019-03-17T13:29:32.542Z,46.00
2019-03-17T13:32:00.716Z,45.90
2019-03-17T13:34:28.269Z,45.60
2019-03-17T13:36:55.734Z,45.50
2019-03-17T13:39:23.086Z,45.70
2019-03-17T13:41:50.769Z,45.60
2019-03-17T13:44:18.295Z,45.60
2019-03-17T13:46:45.640Z,45.20
2019-03-17T13:49:13.184Z,45.20
2019-03-17T13:51:40.570Z,45.00
2019-03-17T13:54:08.114Z,45.30
2019-03-17T13:56:35.866Z,44.50
2019-03-17T13:59:06.317Z,43.90
2019-03-17T14:01:33.904Z,43.80
2019-03-17T14:04:01.533Z,43.70
2019-03-17T14:06:29.229Z,42.90
2019-03-17T14:08:56.932Z,42.00
2019-03-17T14:11:25.213Z,40.40
2019-03-17T14:13:53.999Z,38.60
2019-03-17T14:16:21.572Z,37.20
2019-03-17T14:18:49.066Z,36.40
2019-03-17T14:21:16.671Z,36.50
2019-03-17T14:23:44.262Z,36.80
2019-03-17T14:26:11.740Z,36.50
2019-03-17T14:28:39.445Z,35.80
2019-03-17T14:31:06.982Z,35.30
2019-03-17T14:33:34.495Z,35.00
2019-03-17T14:36:03.291Z,34.40
2019-03-17T14:38:31.570Z,33.80
2019-03-17T14:40:58.951Z,33.30
2019-03-17T14:43:26.608Z,32.60
2019-03-17T14:45:54.231Z,31.70
2019-03-17T14:48:21.625Z,30.70
2019-03-17T14:50:50.183Z,30.00
2019-03-17T14:53:17.585Z,29.30
2019-03-17T14:55:45.225Z,28.90
2019-03-17T14:58:12.918Z,28.50
2019-03-17T15:00:40.410Z,28.20
2019-03-17T15:03:08.068Z,27.80
2019-03-17T15:05:36.478Z,27.20
2019-03-17T15:08:04.148Z,26.70
2019-03-17T15:10:31.673Z,26.00
2019-03-17T15:12:59.440Z,25.50
2019-03-17T15:15:27.507Z,25.10
2019-03-17T15:17:55.060Z,24.70
2019-03-17T15:20:22.864Z,24.30
2019-03-17T15:22:50.484Z,24.00
2019-03-17T15:25:18.157Z,23.80
2019-03-17T15:27:46.051Z,23.50
2019-03-17T15:30:20.138Z,23.30
2019-03-17T15:32:47.653Z,23.10
2019-03-17T15:35:17.365Z,23.00
2019-03-17T15:37:45.429Z,22.90
2019-03-17T15:40:13.163Z,22.80
2019-03-17T15:42:40.816Z,22.60
2019-03-17T15:45:11.128Z,22.50
2019-03-17T15:47:38.603Z,22.30
2019-03-17T15:50:07.249Z,22.10
2019-03-17T15:52:35.460Z,22.00
2019-03-17T15:55:04.041Z,21.80
2019-03-17T15:57:32.193Z,21.60
2019-03-17T16:00:08.008Z,21.40
2019-03-17T16:02:41.964Z,21.20
2019-03-17T16:08:57.752Z,20.90
2019-03-17T16:11:31.247Z,20.70
2019-03-17T16:13:58.206Z,20.60
2019-03-17T16:16:29.094Z,20.40
2019-03-17T16:18:58.913Z,20.20
2019-03-17T16:21:28.036Z,20.00
2019-03-17T16:23:56.461Z,19.90
2019-03-17T16:27:19.730Z,19.70
2019-03-17T16:29:51.790Z,19.60
2019-03-17T16:32:19.741Z,19.50
2019-03-17T16:35:06.651Z,19.30
2019-03-17T16:39:11.697Z,19.00
2019-03-17T16:41:43.804Z,18.90
2019-03-17T16:44:15.266Z,18.60
2019-03-17T16:46:46.144Z,18.40
2019-03-17T16:49:17.239Z,18.20
2019-03-17T16:52:01.232Z,18.10
2019-03-17T16:55:06.556Z,18.10
2019-03-17T16:57:34.392Z,17.80
2019-03-17T17:00:03.294Z,17.60
2019-03-17T17:06:54.606Z,17.30
2019-03-17T17:09:53.497Z,17.10
2019-03-17T17:12:25.020Z,17.00
2019-03-17T17:15:16.447Z,16.80
2019-03-17T17:17:44.500Z,16.60
2019-03-17T17:20:18.001Z,16.30
2019-03-17T17:23:01.102Z,16.10
2019-03-17T17:25:35.680Z,15.90
2019-03-17T17:28:49.052Z,15.70
2019-03-17T17:31:17.439Z,15.60
2019-03-17T17:33:53.849Z,15.50
2019-03-17T17:39:53.319Z,15.20
2019-03-17T17:42:33.789Z,14.80
2019-03-17T17:45:25.993Z,14.90
2019-03-17T17:48:51.682Z,14.60
2019-03-17T17:51:43.283Z,14.40
2019-03-17T17:54:22.513Z,14.10
2019-03-17T17:57:43.549Z,14.10
2019-03-17T18:00:17.872Z,13.90
2019-03-17T18:06:41.619Z,13.60
2019-03-17T18:09:09.629Z,13.60
2019-03-17T18:12:21.115Z,13.40
2019-03-17T18:15:10.635Z,13.30
2019-03-17T18:21:06.261Z,13.00
2019-03-17T18:23:35.884Z,12.90
2019-03-17T18:26:24.708Z,12.80
2019-03-17T18:28:54.289Z,12.60
2019-03-17T18:31:22.627Z,12.50
2019-03-17T18:33:52.491Z,12.20
2019-03-17T18:37:00.280Z,12.10
2019-03-17T18:39:29.758Z,12.00
2019-03-17T18:41:57.861Z,12.00
2019-03-17T18:44:41.273Z,11.70
2019-03-17T18:47:30.561Z,11.60
2019-03-17T18:50:42.614Z,11.30
2019-03-17T18:53:10.654Z,11.10
2019-03-17T18:55:39.304Z,11.00
2019-03-17T18:58:13.172Z,11.00
2019-03-17T19:00:53.689Z,10.70
2019-03-17T19:03:23.176Z,10.60
2019-03-17T19:05:51.375Z,10.40
2019-03-17T19:08:24.268Z,10.20
2019-03-17T19:10:54.578Z,10.00
2019-03-17T19:13:23.231Z,9.90
2019-03-17T19:15:51.094Z,9.70
2019-03-17T19:18:21.539Z,9.60
2019-03-17T19:20:48.903Z,9.50
2019-03-17T19:23:16.675Z,9.50
2019-03-17T19:25:44.336Z,9.40
2019-03-17T19:28:12.588Z,9.30
2019-03-17T19:30:40.949Z,9.20
2019-03-17T19:33:08.299Z,9.10
2019-03-17T19:35:39.281Z,9.00
2019-03-17T19:38:07.070Z,9.00
2019-03-17T19:40:34.851Z,8.90
2019-03-17T19:43:02.895Z,8.80
2019-03-17T19:45:30.477Z,8.70
2019-03-17T19:47:58.539Z,8.60
2019-03-17T19:50:26.683Z,8.50
2019-03-17T19:52:55.218Z,8.40
2019-03-17T19:55:23.809Z,8.30
2019-03-17T19:57:51.772Z,8.20
2019-03-17T20:00:19.670Z,8.10
2019-03-17T20:02:48.115Z,8.10
2019-03-17T20:05:15.705Z,8.00
2019-03-17T20:07:43.343Z,8.00
2019-03-17T20:10:17.174Z,7.90
2019-03-17T20:12:44.833Z,7.90
2019-03-17T20:15:12.796Z,7.90
2019-03-17T20:17:41.425Z,7.80
2019-03-17T20:20:10.595Z,7.80
2019-03-17T20:22:38.120Z,7.70
2019-03-17T20:25:06.124Z,7.80
2019-03-17T20:27:34.307Z,7.80
2019-03-17T20:30:01.876Z,7.80
2019-03-17T20:32:29.596Z,7.80
2019-03-17T20:34:56.978Z,7.70
2019-03-17T20:37:25.646Z,7.70
2019-03-17T20:39:54.352Z,7.70
2019-03-17T20:42:21.811Z,7.70
2019-03-17T20:44:51.414Z,7.60
2019-03-17T20:47:18.857Z,7.50
2019-03-17T20:49:46.603Z,7.40
2019-03-17T20:52:13.971Z,7.40
2019-03-17T20:54:41.563Z,7.30
2019-03-17T20:57:09.052Z,7.30
2019-03-17T20:59:36.538Z,7.20
2019-03-17T21:02:04.131Z,7.20
2019-03-17T21:04:31.672Z,7.20
2019-03-17T21:06:59.284Z,7.20
2019-03-17T21:09:26.835Z,7.00
2019-03-17T21:11:54.187Z,7.20
2019-03-17T21:14:22.022Z,7.10
2019-03-17T21:16:49.651Z,7.10
2019-03-17T21:19:17.340Z,7.00
2019-03-17T21:21:44.911Z,7.00
2019-03-17T21:24:12.598Z,6.90
2019-03-17T21:26:40.092Z,6.90
2019-03-17T21:29:07.613Z,6.90
2019-03-17T21:31:35.136Z,6.90
2019-03-17T21:34:02.906Z,6.80
2019-03-17T21:36:30.646Z,6.80
2019-03-17T21:38:58.478Z,6.90
2019-03-17T21:41:26.875Z,6.90
2019-03-17T21:43:59.470Z,7.00
2019-03-17T21:46:24.137Z,7.00
2019-03-17T21:48:51.673Z,7.10
2019-03-17T21:51:19.402Z,7.10
2019-03-17T21:53:47.045Z,7.10
2019-03-17T21:56:14.514Z,7.20
2019-03-17T21:58:42.150Z,7.30
2019-03-17T22:01:09.569Z,7.30
2019-03-17T22:03:37.265Z,7.40
2019-03-17T22:06:05.102Z,7.40
2019-03-17T22:08:33.061Z,7.50
2019-03-17T22:11:00.661Z,7.50
2019-03-17T22:13:29.234Z,7.70
2019-03-17T22:15:57.531Z,7.80
2019-03-17T22:18:25.919Z,7.90
2019-03-17T22:20:53.693Z,8.00
2019-03-17T22:23:21.127Z,8.10
2019-03-17T22:25:48.912Z,8.20
2019-03-17T22:28:19.521Z,8.40
2019-03-17T22:30:46.391Z,8.50
2019-03-17T22:33:14.454Z,8.60
2019-03-17T22:35:43.422Z,8.70
2019-03-17T22:38:12.887Z,8.80
2019-03-17T22:40:40.579Z,8.80
2019-03-17T22:43:09.547Z,8.80
2019-03-17T22:45:37.005Z,8.80
2019-03-17T22:48:04.966Z,8.80
2019-03-17T22:50:32.590Z,8.80
2019-03-17T22:53:00.107Z,8.80
2019-03-17T22:55:27.918Z,8.70
2019-03-17T22:57:59.321Z,8.70
2019-03-17T23:00:42.340Z,8.70
2019-03-17T23:03:13.395Z,8.70
2019-03-17T23:05:41.196Z,8.70
2019-03-17T23:08:08.727Z,8.70
2019-03-17T23:10:36.487Z,8.70
2019-03-17T23:13:04.128Z,8.80
2019-03-17T23:15:31.585Z,8.80
2019-03-17T23:17:59.584Z,8.80
2019-03-17T23:20:27.220Z,8.90
2019-03-17T23:22:54.820Z,8.90
2019-03-17T23:25:22.628Z,9.00
2019-03-17T23:27:50.348Z,9.00
2019-03-17T23:30:18.258Z,9.00
2019-03-17T23:32:49.196Z,9.10
2019-03-17T23:35:16.650Z,9.20
2019-03-17T23:37:44.748Z,9.40
2019-03-17T23:40:12.679Z,9.60
2019-03-17T23:42:40.287Z,9.80
2019-03-17T23:45:08.289Z,10.00
2019-03-17T23:47:36.086Z,10.10
2019-03-17T23:50:04.259Z,10.20
2019-03-17T23:52:31.953Z,10.40
2019-03-17T23:54:59.587Z,10.50
2019-03-17T23:57:27.383Z,10.60
2019-03-17T23:59:55.086Z,10.60
